Time;durP1;ratioP1;P1;durP2;ratioP2;P2;SDS_P1;SDS_P2;PMS_P1;PMS_P2;Temp;Humidity;BMP_temperature;BMP_pressure;BME280_temperature;BME280_humidity;BME280_pressure;Samples;Min_cycle;Max_cycle;Signal;HPM_P1;HPM_P2
2023/04/21 00:00:11;;;;;;;7.35;4.47;;;;;;;16.99;50.28;96038.75;5044398;28;20024;-29
2023/04/21 00:02:40;;;;;;;5.63;3.75;;;;;;;17.05;50.19;96028.63;5036939;28;20017;-29
2023/04/21 00:05:09;;;;;;;5.95;4.00;;;;;;;17.14;50.05;96037.47;5036631;28;20132;-30
2023/04/21 00:07:36;;;;;;;8.05;5.20;;;;;;;17.19;49.66;96027.78;5037176;28;20389;-30
2023/04/21 00:10:04;;;;;;;7.68;4.70;;;;;;;16.92;50.45;96036.44;5037139;28;20096;-30
2023/04/21 00:12:29;;;;;;;7.30;5.07;;;;;;;17.18;50.07;96038.00;5038743;28;20064;-29
2023/04/21 00:14:54;;;;;;;6.75;4.13;;;;;;;17.09;49.97;96029.16;5042145;28;20059;-32
2023/04/21 00:17:20;;;;;;;4.97;3.15;;;;;;;17.17;49.72;96030.28;5037142;28;20043;-29
2023/04/21 00:19:46;;;;;;;5.93;3.15;;;;;;;17.17;49.89;96024.81;5036731;28;20022;-30
2023/04/21 00:22:13;;;;;;;4.20;2.42;;;;;;;17.26;49.67;96021.16;5037047;28;20386;-30
2023/04/21 00:24:39;;;;;;;3.60;2.22;;;;;;;16.96;50.04;96010.31;5038563;28;20370;-30
2023/04/21 00:27:05;;;;;;;3.00;2.05;;;;;;;17.02;50.21;96010.41;5049679;28;20041;-29
2023/04/21 00:29:30;;;;;;;2.80;1.55;;;;;;;16.96;50.00;96009.56;5034637;28;20028;-30
2023/04/21 00:31:56;;;;;;;2.15;1.50;;;;;;;17.27;49.35;96006.97;5043961;28;20108;-29
2023/04/21 00:34:21;;;;;;;1.70;1.58;;;;;;;17.12;49.78;96011.78;5036397;28;20084;-30
2023/04/21 00:36:46;;;;;;;1.92;1.60;;;;;;;17.16;49.92;96006.84;5036700;28;20049;-29
2023/04/21 00:39:13;;;;;;;3.45;1.40;;;;;;;17.07;50.13;96012.44;5040358;28;20021;-29
2023/04/21 00:41:39;;;;;;;2.75;1.55;;;;;;;17.17;49.76;96003.63;5039063;28;20028;-30
2023/04/21 00:44:08;;;;;;;1.73;1.60;;;;;;;17.11;49.99;96000.06;5043615;28;20020;-29
2023/04/21 00:46:35;;;;;;;1.45;1.27;;;;;;;17.10;50.03;96004.03;5036083;28;20025;-29
2023/04/21 00:49:03;;;;;;;1.67;1.58;;;;;;;17.01;50.59;96001.44;5043030;28;20020;-30
2023/04/21 00:51:31;;;;;;;2.65;1.50;;;;;;;17.16;49.97;96001.38;5036259;28;20428;-29
2023/04/21 00:53:59;;;;;;;3.28;1.55;;;;;;;17.12;50.39;96001.56;5043543;28;20087;-29
2023/04/21 00:56:25;;;;;;;2.33;1.70;;;;;;;17.18;50.20;95996.91;5042822;28;20057;-30
2023/04/21 00:58:52;;;;;;;2.78;1.88;;;;;;;17.04;50.48;95992.25;5035804;28;20025;-30
2023/04/21 01:01:18;;;;;;;3.17;1.80;;;;;;;17.13;50.46;95997.59;5036201;28;20104;-29
2023/04/21 01:03:45;;;;;;;2.60;1.80;;;;;;;17.11;50.60;95994.56;5034446;28;20469;-29
2023/04/21 01:06:11;;;;;;;2.55;1.75;;;;;;;17.17;50.61;95997.41;5036403;28;20013;-30
2023/04/21 01:08:37;;;;;;;2.38;2.13;;;;;;;17.17;50.94;96000.91;5045366;28;20480;-30
2023/04/21 01:11:12;;;;;;;3.40;2.03;;;;;;;17.17;50.82;96003.63;5039951;28;20354;-30
2023/04/21 01:13:38;;;;;;;2.70;1.98;;;;;;;17.00;51.39;95988.22;5042838;28;20021;-29
2023/04/21 01:16:05;;;;;;;3.65;2.20;;;;;;;17.10;51.53;96000.53;5035744;28;20022;-31
2023/04/21 01:18:30;;;;;;;2.45;2.20;;;;;;;16.95;51.92;95997.84;5035841;28;20087;-30
2023/04/21 01:20:57;;;;;;;3.00;2.20;;;;;;;17.00;51.86;96004.66;5035599;28;20017;-29
2023/04/21 01:23:23;;;;;;;2.55;1.95;;;;;;;17.07;51.89;96001.47;5042610;28;20044;-31
2023/04/21 01:25:50;;;;;;;2.70;2.00;;;;;;;16.96;52.02;96004.09;5035703;28;20547;-29
2023/04/21 01:28:20;;;;;;;2.67;2.20;;;;;;;17.02;51.90;96002.19;5035202;28;20049;-31
2023/04/21 01:30:46;;;;;;;3.75;2.15;;;;;;;17.05;52.09;96004.72;5042615;28;20030;-30
2023/04/21 01:33:11;;;;;;;3.55;2.20;;;;;;;17.15;51.91;95997.13;5033571;28;20075;-29
2023/04/21 01:35:37;;;;;;;3.00;2.10;;;;;;;17.09;51.98;95996.28;5042433;28;20428;-30
2023/04/21 01:38:02;;;;;;;4.13;2.28;;;;;;;17.02;52.08;96000.19;5038054;28;20424;-29
2023/04/21 01:40:28;;;;;;;4.80;2.45;;;;;;;16.96;52.42;95998.59;5039727;28;20029;-29
2023/04/21 01:42:53;;;;;;;2.72;2.20;;;;;;;17.16;51.96;95996.66;5035409;28;20457;-30
2023/04/21 01:45:19;;;;;;;3.72;2.53;;;;;;;17.14;52.02;96001.84;5035042;28;20021;-30
2023/04/21 01:47:44;;;;;;;3.42;2.38;;;;;;;17.13;52.21;96005.06;5034982;28;20073;-29
2023/04/21 01:50:10;;;;;;;2.75;2.03;;;;;;;17.04;52.47;96005.22;5035561;28;20020;-29
2023/04/21 01:52:35;;;;;;;3.42;1.90;;;;;;;17.08;52.21;96005.72;5040684;28;20032;-30
2023/04/21 01:55:01;;;;;;;3.78;2.63;;;;;;;16.92;52.79;96003.56;5033987;28;20112;-32
2023/04/21 01:57:26;;;;;;;3.70;2.20;;;;;;;17.08;52.44;96003.75;5034574;28;20033;-29
2023/04/21 01:59:52;;;;;;;3.78;2.70;;;;;;;16.90;53.07;96009.50;5034934;28;20100;-29
2023/04/21 02:02:17;;;;;;;3.03;2.58;;;;;;;17.11;52.38;96000.06;5042223;28;20492;-29
2023/04/21 02:04:42;;;;;;;3.28;2.47;;;;;;;17.12;52.50;96004.31;5039046;28;20044;-29
2023/04/21 02:07:08;;;;;;;4.13;2.42;;;;;;;16.99;52.65;96008.63;5044504;28;20028;-30
2023/04/21 02:09:33;;;;;;;4.45;2.25;;;;;;;16.99;52.75;96008.63;5034853;28;20029;-30
2023/04/21 02:11:59;;;;;;;4.38;3.15;;;;;;;16.96;52.90;95999.38;5034643;28;20021;-30
2023/04/21 02:14:25;;;;;;;2.97;2.10;;;;;;;16.99;52.99;96003.13;5034737;28;20477;-29
2023/04/21 02:16:50;;;;;;;4.80;2.30;;;;;;;16.94;52.91;96006.56;5034783;28;20021;-30
2023/04/21 02:19:15;;;;;;;2.55;2.17;;;;;;;16.91;53.15;96002.81;5041269;28;20040;-29
2023/04/21 02:21:41;;;;;;;3.55;2.50;;;;;;;16.82;53.30;96000.91;5042277;28;20028;-29
2023/04/21 02:24:07;;;;;;;3.45;2.35;;;;;;;17.08;52.72;96003.75;5034257;28;20017;-29
2023/04/21 02:26:33;;;;;;;3.33;2.17;;;;;;;17.03;52.48;96001.72;5041778;28;20074;-31
2023/04/21 02:28:58;;;;;;;3.72;2.10;;;;;;;16.79;53.57;96001.91;5034463;28;20108;-31
2023/04/21 02:31:23;;;;;;;3.40;2.60;;;;;;;16.92;53.12;95998.84;5047816;28;20032;-29
2023/04/21 02:33:49;;;;;;;5.20;2.85;;;;;;;16.97;53.14;95997.38;5036267;28;20452;-29
2023/04/21 02:36:14;;;;;;;2.97;2.33;;;;;;;16.86;53.45;95996.00;5039666;28;20033;-29
2023/04/21 02:38:40;;;;;;;5.43;2.80;;;;;;;16.91;53.31;95996.56;5032286;28;20032;-31
2023/04/21 02:41:05;;;;;;;5.13;2.83;;;;;;;16.81;53.68;95993.94;5034482;28;20028;-30
2023/04/21 02:43:31;;;;;;;4.53;2.85;;;;;;;16.93;53.45;95994.09;5033815;28;20022;-30
2023/04/21 02:45:56;;;;;;;3.55;2.78;;;;;;;16.70;54.02;95988.31;5041170;28;20104;-29
2023/04/21 02:48:22;;;;;;;4.53;3.05;;;;;;;17.01;53.15;95993.22;5044869;28;20016;-29
2023/04/21 02:50:51;;;;;;;4.22;3.10;;;;;;;16.75;54.05;95986.88;5036772;28;20422;-29
2023/04/21 02:53:17;;;;;;;3.60;3.05;;;;;;;16.97;53.45;95984.44;5040867;28;20080;-29
2023/04/21 02:55:43;;;;;;;5.10;3.08;;;;;;;17.10;53.10;95984.09;5033921;28;20064;-30
2023/04/21 02:58:09;;;;;;;3.55;2.70;;;;;;;16.75;54.17;95979.44;5041442;28;20044;-30
2023/04/21 03:00:34;;;;;;;3.20;2.90;;;;;;;16.87;53.82;95985.81;5038154;28;20035;-29
2023/04/21 03:03:00;;;;;;;4.18;2.70;;;;;;;17.05;53.32;95985.56;5036613;28;20014;-30
2023/04/21 03:05:25;;;;;;;4.82;3.38;;;;;;;16.91;54.05;95988.34;5033970;28;20074;-30
2023/04/21 03:07:51;;;;;;;4.70;3.22;;;;;;;16.93;53.64;95989.38;5040911;28;20026;-29
2023/04/21 03:10:16;;;;;;;5.60;2.95;;;;;;;16.79;54.15;95988.22;5034461;28;20104;-29
2023/04/21 03:12:42;;;;;;;4.53;3.13;;;;;;;16.75;54.33;95990.38;5040490;28;20026;-29
2023/04/21 03:15:07;;;;;;;4.75;3.22;;;;;;;16.62;54.56;95987.22;5040803;28;20029;-30
2023/04/21 03:17:33;;;;;;;4.50;3.28;;;;;;;16.81;54.34;95993.94;5033967;28;20038;-29
2023/04/21 03:19:58;;;;;;;5.63;3.78;;;;;;;16.72;54.38;95991.34;5034977;28;20428;-29
2023/04/21 03:22:24;;;;;;;4.35;3.38;;;;;;;16.80;54.33;95997.19;5040220;28;20037;-30
2023/04/21 03:24:49;;;;;;;3.88;3.10;;;;;;;16.65;54.63;95997.22;5047403;28;20024;-30
2023/04/21 03:27:14;;;;;;;3.90;3.50;;;;;;;16.81;54.10;95998.69;5046296;28;20028;-29
2023/04/21 03:29:40;;;;;;;4.40;3.30;;;;;;;16.75;54.31;95995.84;5040713;28;20136;-29
2023/04/21 03:32:05;;;;;;;4.43;3.35;;;;;;;16.88;54.12;96001.00;5046302;28;20033;-30
2023/04/21 03:34:31;;;;;;;4.40;3.17;;;;;;;16.93;54.03;95999.59;5040037;28;20079;-29
2023/04/21 03:36:56;;;;;;;5.35;3.75;;;;;;;16.73;54.62;95994.81;5040644;28;20439;-31
2023/04/21 03:39:21;;;;;;;6.88;3.47;;;;;;;16.87;54.18;95997.50;5040151;28;20095;-31
2023/04/21 03:41:47;;;;;;;4.60;3.42;;;;;;;16.99;53.77;95998.41;5047286;28;20428;-30
2023/04/21 03:44:12;;;;;;;4.97;3.83;;;;;;;16.93;53.71;96000.34;5047210;28;20044;-29
2023/04/21 03:46:38;;;;;;;4.72;3.55;;;;;;;16.93;53.74;96003.09;5040083;28;20060;-30
2023/04/21 03:49:03;;;;;;;5.88;3.60;;;;;;;16.86;54.29;96003.47;5046913;28;20361;-30
2023/04/21 03:51:31;;;;;;;4.78;3.67;;;;;;;16.72;54.33;96007.00;5040259;28;20071;-29
2023/04/21 03:53:56;;;;;;;5.13;3.40;;;;;;;16.73;54.13;96006.53;5047257;28;20100;-29
2023/04/21 03:56:22;;;;;;;4.45;3.53;;;;;;;16.80;53.93;96008.13;5035825;28;20108;-29
2023/04/21 03:58:48;;;;;;;5.25;3.30;;;;;;;16.91;53.79;96007.53;5044151;28;20033;-30
2023/04/21 04:01:13;;;;;;;4.88;3.10;;;;;;;16.87;53.80;96003.00;5039723;28;20025;-29
2023/04/21 04:03:39;;;;;;;4.97;3.58;;;;;;;16.83;53.59;96002.44;5039486;28;20024;-30
2023/04/21 04:06:05;;;;;;;3.60;3.08;;;;;;;16.77;54.04;96007.09;5039314;28;20033;-32
2023/04/21 04:08:30;;;;;;;3.90;3.20;;;;;;;16.71;54.02;96003.50;5032160;28;20043;-30
2023/04/21 04:10:55;;;;;;;3.22;2.70;;;;;;;16.80;54.09;96002.66;5046845;28;20021;-30
2023/04/21 04:13:21;;;;;;;4.88;2.80;;;;;;;16.66;54.48;96001.47;5039630;28;20431;-29
2023/04/21 04:15:47;;;;;;;3.47;2.92;;;;;;;16.81;53.70;96004.88;5039714;28;20025;-30
2023/04/21 04:18:12;;;;;;;3.47;2.80;;;;;;;16.67;54.24;96005.72;5040052;28;20025;-30
2023/04/21 04:20:38;;;;;;;3.70;2.75;;;;;;;16.57;54.25;96006.28;5039990;28;20025;-29
2023/04/21 04:23:03;;;;;;;5.03;3.47;;;;;;;16.64;54.12;96009.41;5044547;28;20377;-29
2023/04/21 04:25:29;;;;;;;4.25;2.58;;;;;;;16.85;53.51;96013.66;5049243;28;20465;-30
2023/04/21 04:27:56;;;;;;;3.97;2.90;;;;;;;16.66;54.05;96004.19;5039643;28;20477;-30
2023/04/21 04:30:22;;;;;;;3.90;2.85;;;;;;;16.76;53.82;96002.84;5046010;28;20031;-30
2023/04/21 04:32:48;;;;;;;3.78;2.63;;;;;;;16.61;54.08;96013.06;5037822;28;20029;-30
2023/04/21 04:35:15;;;;;;;3.35;2.67;;;;;;;16.69;53.55;96014.19;5036612;28;20484;-30
2023/04/21 04:37:40;;;;;;;3.17;2.63;;;;;;;16.57;54.20;96017.22;5043802;28;20021;-29
2023/04/21 04:40:11;;;;;;;3.38;2.78;;;;;;;16.90;53.13;96023.19;5043393;28;20023;-29
2023/04/21 04:42:38;;;;;;;3.25;2.90;;;;;;;16.74;53.40;96015.50;5036572;28;20044;-30
2023/04/21 04:45:05;;;;;;;3.03;2.53;;;;;;;16.85;53.13;96019.16;5044042;28;20021;-29
2023/04/21 04:47:30;;;;;;;4.45;2.70;;;;;;;16.67;53.65;96027.63;5036557;28;20025;-30
2023/04/21 04:49:55;;;;;;;3.83;2.50;;;;;;;16.96;52.99;96024.00;5050723;28;20021;-30
2023/04/21 04:52:21;;;;;;;4.32;2.70;;;;;;;16.84;53.28;96033.31;5039072;28;20392;-31
2023/04/21 04:54:46;;;;;;;4.85;2.42;;;;;;;16.75;53.48;96039.69;5039922;28;20026;-30
2023/04/21 04:57:12;;;;;;;3.08;2.40;;;;;;;16.74;53.10;96031.94;5037349;28;20048;-29
2023/04/21 04:59:37;;;;;;;8.88;3.05;;;;;;;16.80;53.45;96038.25;5036098;28;20097;-31
2023/04/21 05:02:03;;;;;;;4.75;2.42;;;;;;;16.80;53.25;96030.78;5036207;28;20024;-30
2023/04/21 05:04:28;;;;;;;2.42;2.22;;;;;;;16.86;53.19;96023.41;5042714;28;20492;-30
2023/04/21 05:06:54;;;;;;;2.92;2.55;;;;;;;16.94;52.82;96028.50;5049175;28;20103;-29
2023/04/21 05:09:19;;;;;;;3.22;2.63;;;;;;;16.72;53.65;96035.16;5037260;28;20552;-29
2023/04/21 05:11:45;;;;;;;3.65;2.65;;;;;;;16.67;53.63;96033.09;5035785;28;20022;-29
2023/04/21 05:14:10;;;;;;;3.00;2.45;;;;;;;16.90;53.16;96038.88;5035642;28;20014;-31
2023/04/21 05:16:35;;;;;;;3.72;2.75;;;;;;;16.88;53.20;96040.09;5042980;28;20025;-32
2023/04/21 05:19:02;;;;;;;3.65;2.50;;;;;;;16.94;53.12;96028.50;5040903;28;20025;-30
2023/04/21 05:21:28;;;;;;;2.95;2.33;;;;;;;16.89;53.41;96038.13;5036363;28;20061;-30
2023/04/21 05:23:55;;;;;;;3.42;2.35;;;;;;;16.98;52.89;96045.47;5042348;28;20044;-32
2023/04/21 05:26:21;;;;;;;4.03;2.45;;;;;;;16.94;53.14;96044.91;5043047;28;20032;-29
2023/04/21 05:28:47;;;;;;;3.55;2.60;;;;;;;16.98;52.84;96048.94;5042775;28;20029;-29
2023/04/21 05:31:12;;;;;;;3.42;2.10;;;;;;;17.06;52.88;96049.31;5042232;28;20029;-30
2023/04/21 05:33:38;;;;;;;4.38;2.70;;;;;;;17.33;51.96;96048.91;5042667;28;20017;-29
2023/04/21 05:36:10;;;;;;;5.78;2.50;;;;;;;17.08;52.83;96055.06;5042787;28;20022;-30
2023/04/21 05:38:36;;;;;;;4.55;2.63;;;;;;;17.00;52.98;96043.75;5034872;28;20036;-29
2023/04/21 05:41:03;;;;;;;3.85;2.58;;;;;;;17.12;52.49;96052.88;5035474;28;20029;-29
2023/04/21 05:43:28;;;;;;;3.03;2.20;;;;;;;17.00;52.96;96048.47;5034912;28;20022;-29
2023/04/21 05:45:54;;;;;;;9.00;3.42;;;;;;;17.09;52.63;96045.59;5041351;28;20534;-29
2023/04/21 05:48:19;;;;;;;3.15;2.22;;;;;;;17.11;52.89;96048.63;5034765;28;20104;-29
2023/04/21 05:50:45;;;;;;;2.67;2.33;;;;;;;17.07;53.05;96051.56;5033618;28;20017;-30
2023/04/21 05:53:10;;;;;;;3.22;2.45;;;;;;;16.95;53.77;96054.63;5035241;28;20018;-31
2023/04/21 05:55:36;;;;;;;3.38;2.38;;;;;;;17.22;52.69;96057.00;5035016;28;20025;-30
2023/04/21 05:58:03;;;;;;;3.35;2.40;;;;;;;17.17;53.05;96057.69;5035179;28;20025;-29
2023/04/21 06:00:29;;;;;;;2.75;2.17;;;;;;;17.02;53.52;96054.25;5035779;28;20534;-30
2023/04/21 06:02:54;;;;;;;3.85;2.40;;;;;;;17.16;53.24;96056.19;5042124;28;20029;-30
2023/04/21 06:05:20;;;;;;;3.15;2.55;;;;;;;17.13;53.60;96057.88;5034706;28;20054;-29
2023/04/21 06:07:45;;;;;;;2.97;2.35;;;;;;;17.24;53.16;96060.00;5042509;28;20021;-30
2023/04/21 06:10:12;;;;;;;4.10;2.83;;;;;;;17.22;53.00;96052.25;5034519;28;20028;-30
2023/04/21 06:12:38;;;;;;;3.80;2.63;;;;;;;17.17;53.45;96063.16;5041722;28;20025;-29
2023/04/21 06:15:04;;;;;;;3.22;2.50;;;;;;;17.30;53.15;96060.84;5039326;28;20021;-30
2023/04/21 06:17:29;;;;;;;3.40;3.00;;;;;;;17.16;53.75;96053.44;5036458;28;20073;-30
2023/04/21 06:19:55;;;;;;;4.25;3.05;;;;;;;17.21;53.82;96052.75;5040650;28;20024;-29
2023/04/21 06:22:23;;;;;;;4.50;2.95;;;;;;;17.17;54.05;96063.16;5034099;28;20380;-29
2023/04/21 06:24:48;;;;;;;3.97;2.78;;;;;;;17.30;53.54;96066.31;5044264;28;20028;-29
2023/04/21 06:27:14;;;;;;;3.55;2.95;;;;;;;17.48;52.97;96066.03;5038897;28;20024;-31
2023/04/21 06:29:41;;;;;;;4.32;2.90;;;;;;;17.35;53.82;96062.13;5041929;28;20110;-29
2023/04/21 06:32:07;;;;;;;5.65;3.75;;;;;;;17.30;53.87;96065.56;5047295;28;20129;-30
2023/04/21 06:34:32;;;;;;;4.47;3.53;;;;;;;17.35;53.70;96068.38;5033740;28;20144;-30
2023/04/21 06:36:57;;;;;;;5.32;3.50;;;;;;;17.25;54.52;96072.47;5034865;28;20012;-29
2023/04/21 06:39:23;;;;;;;4.90;3.55;;;;;;;17.38;54.12;96075.63;5034272;28;20043;-30
2023/04/21 06:41:48;;;;;;;4.00;3.25;;;;;;;17.29;54.25;96075.78;5041745;28;20027;-30
2023/04/21 06:44:14;;;;;;;4.65;3.53;;;;;;;17.50;53.96;96071.78;5031600;28;20044;-29
2023/04/21 06:46:40;;;;;;;5.20;3.40;;;;;;;17.25;54.96;96072.47;5033372;28;20108;-30
2023/04/21 06:49:09;;;;;;;4.40;3.28;;;;;;;17.30;54.97;96071.06;5040457;28;20068;-29
2023/04/21 06:51:34;;;;;;;4.43;3.40;;;;;;;17.42;54.78;96073.47;5034068;28;20501;-29
2023/04/21 06:54:00;;;;;;;6.07;3.95;;;;;;;17.38;54.52;96078.38;5034384;28;20056;-29
2023/04/21 06:56:26;;;;;;;6.20;4.53;;;;;;;17.37;55.36;96076.88;5039692;28;20037;-29
2023/04/21 06:58:52;;;;;;;7.82;4.95;;;;;;;17.50;54.73;96079.28;5040728;28;20021;-29
2023/04/21 07:01:17;;;;;;;10.07;5.20;;;;;;;17.42;55.25;96076.19;5033944;28;20492;-29
2023/04/21 07:03:43;;;;;;;8.80;5.60;;;;;;;17.48;55.44;96073.50;5033425;28;20010;-29
2023/04/21 07:06:09;;;;;;;11.38;6.45;;;;;;;17.56;54.89;96067.13;5034062;28;20025;-29
2023/04/21 07:08:35;;;;;;;9.23;5.53;;;;;;;17.49;55.52;96072.28;5047974;28;20017;-29
2023/04/21 07:11:00;;;;;;;9.30;4.85;;;;;;;17.38;56.09;96067.41;5040272;28;20020;-29
2023/04/21 07:13:26;;;;;;;6.78;4.60;;;;;;;17.50;56.18;96071.03;5034489;28;20378;-30
2023/04/21 07:15:53;;;;;;;7.90;4.65;;;;;;;17.55;55.42;96076.59;5033627;28;20386;-29
2023/04/21 07:18:18;;;;;;;6.35;4.70;;;;;;;17.55;55.89;96079.34;5033475;28;20167;-29
2023/04/21 07:20:44;;;;;;;6.03;4.10;;;;;;;17.43;56.33;96085.19;5034206;28;20497;-30
2023/04/21 07:23:09;;;;;;;6.22;4.65;;;;;;;17.48;55.71;96079.75;5033631;28;20041;-29
2023/04/21 07:25:35;;;;;;;7.20;4.10;;;;;;;17.46;56.33;96081.44;5039511;28;20030;-29
2023/04/21 07:28:02;;;;;;;6.70;4.03;;;;;;;17.53;56.17;96084.56;5033347;28;20025;-29
2023/04/21 07:30:28;;;;;;;6.53;4.38;;;;;;;17.52;55.50;96082.28;5039023;28;20411;-30
2023/04/21 07:32:54;;;;;;;5.30;4.00;;;;;;;17.56;55.26;96091.81;5033744;28;20028;-29
2023/04/21 07:35:19;;;;;;;6.55;3.80;;;;;;;17.59;55.04;96087.34;5040970;28;20026;-29
2023/04/21 07:37:45;;;;;;;6.45;3.85;;;;;;;17.85;54.05;96087.44;5041038;28;20033;-29
2023/04/21 07:40:10;;;;;;;5.60;3.75;;;;;;;17.74;54.37;96088.06;5033305;28;20022;-29
2023/04/21 07:42:36;;;;;;;6.32;3.95;;;;;;;17.86;53.85;96094.41;5033453;28;20026;-29
2023/04/21 07:45:03;;;;;;;6.22;4.05;;;;;;;17.72;54.47;96096.00;5033418;28;20541;-29
2023/04/21 07:47:28;;;;;;;5.45;4.13;;;;;;;17.79;54.07;96101.09;5033627;28;20061;-29
2023/04/21 07:49:54;;;;;;;7.07;4.60;;;;;;;17.89;53.82;96098.94;5040690;28;20052;-29
2023/04/21 07:52:19;;;;;;;9.63;4.53;;;;;;;17.93;54.00;96099.47;5040722;28;20036;-29
2023/04/21 07:54:45;;;;;;;7.10;4.63;;;;;;;17.95;53.71;96105.25;5039052;28;20025;-29
2023/04/21 07:57:10;;;;;;;6.78;4.90;;;;;;;18.05;53.25;96103.13;5033240;28;20028;-30
2023/04/21 07:59:35;;;;;;;5.50;3.85;;;;;;;17.97;53.78;96100.03;5033436;28;20437;-29
2023/04/21 08:02:01;;;;;;;6.35;3.92;;;;;;;17.93;53.69;96099.47;5032757;28;20021;-29
2023/04/21 08:04:29;;;;;;;7.28;3.78;;;;;;;17.98;53.13;96101.53;5039138;28;20068;-29
2023/04/21 08:06:55;;;;;;;6.28;4.00;;;;;;;17.90;53.12;96105.94;5034527;28;20059;-29
2023/04/21 08:09:20;;;;;;;5.43;3.60;;;;;;;17.70;53.69;96103.22;5037046;28;20053;-28
2023/04/21 08:11:46;;;;;;;6.55;3.40;;;;;;;17.91;53.06;96107.44;5040865;28;20104;-28
2023/04/21 08:14:12;;;;;;;4.53;2.97;;;;;;;17.81;53.56;96109.56;5038292;28;20060;-28
2023/04/21 08:16:39;;;;;;;4.38;3.08;;;;;;;17.92;53.01;96101.50;5039398;28;20017;-29
2023/04/21 08:19:06;;;;;;;5.57;2.72;;;;;;;17.75;52.90;96099.78;5041803;28;20045;-28
2023/04/21 08:21:32;;;;;;;4.68;2.65;;;;;;;17.91;52.47;96102.72;5043979;28;20057;-29
2023/04/21 08:23:58;;;;;;;6.63;2.67;;;;;;;17.91;52.63;96101.97;5036669;28;20436;-29
2023/04/21 08:26:24;;;;;;;4.05;2.70;;;;;;;17.91;52.83;96101.97;5036021;28;20112;-29
2023/04/21 08:28:50;;;;;;;4.47;3.20;;;;;;;18.03;52.68;96108.31;5037148;28;20012;-29
2023/04/21 08:31:16;;;;;;;3.00;2.60;;;;;;;17.99;52.74;96097.56;5036774;28;20029;-29
2023/04/21 08:33:42;;;;;;;3.00;2.38;;;;;;;17.93;52.46;96094.75;5043812;28;20393;-29
2023/04/21 08:36:08;;;;;;;3.58;2.53;;;;;;;18.04;52.16;96099.63;5035215;28;20021;-29
2023/04/21 08:38:34;;;;;;;2.75;2.17;;;;;;;17.92;52.84;96104.22;5034778;28;20412;-30
2023/04/21 08:40:59;;;;;;;4.00;2.95;;;;;;;17.99;52.81;96097.56;5036613;28;20027;-28
2023/04/21 08:43:25;;;;;;;3.85;2.30;;;;;;;17.99;52.68;96103.03;5035532;28;20045;-29
2023/04/21 08:45:53;;;;;;;4.95;3.20;;;;;;;17.93;52.82;96104.97;5035868;28;20025;-29
2023/04/21 08:48:22;;;;;;;6.05;3.03;;;;;;;17.85;53.29;96103.88;5046986;28;20033;-29
2023/04/21 08:50:49;;;;;;;5.05;2.63;;;;;;;18.05;52.40;96103.84;5039073;28;20028;-29
2023/04/21 08:53:16;;;;;;;3.70;2.60;;;;;;;18.07;52.82;96100.63;5043042;28;20025;-29
2023/04/21 08:55:42;;;;;;;4.50;2.80;;;;;;;18.00;53.11;96098.31;5035634;28;20355;-29
2023/04/21 08:58:12;;;;;;;5.45;2.50;;;;;;;18.11;52.91;96095.69;5036171;28;20033;-30
2023/04/21 09:00:40;;;;;;;2.85;2.33;;;;;;;18.06;53.24;96102.59;5043221;28;20029;-29
2023/04/21 09:03:07;;;;;;;5.80;2.70;;;;;;;18.07;53.01;96098.63;5042997;28;20468;-28
2023/04/21 09:05:33;;;;;;;4.57;3.17;;;;;;;18.10;52.82;96094.94;5028603;28;20041;-28
2023/04/21 09:08:13;;;;;;;4.00;2.80;;;;;;;18.22;52.59;96104.03;5043165;28;20028;-29
2023/04/21 09:10:47;;;;;;;3.55;2.75;;;;;;;18.21;52.61;96097.78;5028835;28;20096;-29
2023/04/21 09:13:13;;;;;;;4.20;2.95;;;;;;;18.16;52.67;96105.97;5047908;28;20496;-29
2023/04/21 09:15:40;;;;;;;4.82;2.80;;;;;;;18.26;52.48;96112.81;5038729;28;20112;-30
2023/04/21 09:18:17;;;;;;;3.17;2.58;;;;;;;18.15;52.53;96105.22;5038800;28;20021;-30
2023/04/21 09:20:44;;;;;;;3.58;2.63;;;;;;;18.15;52.18;96107.19;5041196;28;20021;-29
2023/04/21 09:23:10;;;;;;;4.32;2.70;;;;;;;18.12;52.19;96106.19;5035718;28;20027;-29
2023/04/21 09:25:40;;;;;;;3.95;2.67;;;;;;;18.17;52.42;96107.47;5036584;28;20372;-29
2023/04/21 09:28:13;;;;;;;3.53;2.75;;;;;;;18.23;52.41;96106.28;5041480;28;20028;-29
2023/04/21 09:30:40;;;;;;;6.50;3.25;;;;;;;18.26;52.31;96115.53;5049504;28;20028;-30
2023/04/21 09:33:06;;;;;;;5.43;2.83;;;;;;;18.24;52.47;96115.28;5035343;28;20029;-29
2023/04/21 09:35:33;;;;;;;4.70;3.00;;;;;;;18.21;52.25;96114.25;5034164;28;20121;-29
2023/04/21 09:38:01;;;;;;;4.80;3.15;;;;;;;18.17;52.35;96110.97;5035795;28;20535;-29
2023/04/21 09:40:28;;;;;;;3.63;2.83;;;;;;;18.23;52.37;96116.50;5042665;28;20043;-30
2023/04/21 09:42:53;;;;;;;5.72;3.40;;;;;;;18.27;52.05;96111.56;5042692;28;20100;-29
2023/04/21 09:45:19;;;;;;;5.32;2.95;;;;;;;18.38;51.68;96119.91;5035432;28;20374;-29
2023/04/21 09:47:52;;;;;;;3.80;3.08;;;;;;;18.39;51.40;96117.91;5034838;28;20500;-29
2023/04/21 09:50:19;;;;;;;4.43;2.80;;;;;;;18.37;51.66;96121.13;5028268;28;20057;-29
2023/04/21 09:52:49;;;;;;;4.57;2.95;;;;;;;18.42;51.61;96117.69;5041566;28;20029;-29
2023/04/21 09:55:17;;;;;;;4.68;2.90;;;;;;;18.28;51.62;96122.06;5037430;28;20088;-29
2023/04/21 09:57:45;;;;;;;40.08;24.50;;;;;;;18.38;51.35;96121.91;5038521;28;20024;-31
2023/04/21 10:00:12;;;;;;;45.25;27.60;;;;;;;18.25;51.34;96119.53;5034580;28;20485;-29
2023/04/21 10:02:49;;;;;;;38.63;22.92;;;;;;;18.45;50.58;96119.47;5033822;28;20458;-29
2023/04/21 10:05:16;;;;;;;29.25;18.10;;;;;;;18.40;50.65;96119.41;5034357;28;20050;-30
2023/04/21 10:07:43;;;;;;;21.13;13.52;;;;;;;18.40;50.72;96120.19;5048338;28;20021;-31
2023/04/21 10:10:20;;;;;;;16.80;10.82;;;;;;;18.37;50.93;96114.91;5041476;28;20018;-29
2023/04/21 10:12:45;;;;;;;13.00;8.20;;;;;;;18.37;50.74;96118.41;5035098;28;20036;-31
2023/04/21 10:15:34;;;;;;;11.00;7.15;;;;;;;18.29;50.40;96114.59;5034685;28;20017;-29
2023/04/21 10:18:20;;;;;;;9.95;6.25;;;;;;;18.26;50.59;96119.03;5029675;28;20032;-29
2023/04/21 10:21:03;;;;;;;6.85;5.15;;;;;;;18.31;50.39;96118.31;5041705;28;20017;-29
2023/04/21 10:23:29;;;;;;;7.22;4.82;;;;;;;18.45;49.95;96115.97;5041581;28;20017;-30
2023/04/21 10:26:09;;;;;;;8.45;4.55;;;;;;;18.45;49.87;96113.22;5034219;28;20037;-29
2023/04/21 10:29:02;;;;;;;4.25;3.28;;;;;;;18.36;49.69;96111.41;5034338;28;20033;-29
2023/04/21 10:31:32;;;;;;;4.88;3.40;;;;;;;18.40;49.74;96119.41;5040583;28;20044;-29
2023/04/21 10:34:06;;;;;;;4.70;3.28;;;;;;;18.27;49.93;96112.31;5041303;28;20473;-30
2023/04/21 10:36:55;;;;;;;3.95;3.08;;;;;;;18.46;49.87;96109.22;5041348;28;20033;-29
2023/04/21 10:39:35;;;;;;;4.93;3.70;;;;;;;18.34;49.92;96107.63;5029043;28;20033;-29
2023/04/21 10:42:12;;;;;;;5.28;3.38;;;;;;;18.35;50.01;96100.91;5034450;28;20063;-30
2023/04/21 10:44:42;;;;;;;5.03;3.85;;;;;;;18.43;49.97;96099.97;5032123;28;20018;-29
2023/04/21 10:47:07;;;;;;;5.18;3.90;;;;;;;18.46;49.82;96104.50;5034710;28;20086;-29
2023/04/21 10:49:38;;;;;;;6.13;3.80;;;;;;;18.39;49.88;96096.69;5033828;28;20072;-28
2023/04/21 10:52:05;;;;;;;4.00;3.00;;;;;;;18.40;49.14;96098.22;5041487;28;20049;-30
2023/04/21 10:54:46;;;;;;;4.90;3.75;;;;;;;18.41;49.07;96096.22;5033867;28;20085;-29
2023/04/21 10:57:19;;;;;;;4.82;2.85;;;;;;;18.46;49.11;96095.50;5034220;28;20025;-29
2023/04/21 10:59:46;;;;;;;5.00;2.80;;;;;;;18.41;49.03;96093.47;5033755;28;20420;-29
2023/04/21 11:02:13;;;;;;;8.90;2.63;;;;;;;18.50;48.87;96101.53;5041448;28;20017;-29
2023/04/21 11:04:46;;;;;;;3.78;2.60;;;;;;;18.50;48.82;96090.56;5037620;28;20037;-29
2023/04/21 11:07:15;;;;;;;4.93;3.00;;;;;;;18.53;48.68;96086.84;5043377;28;20104;-29
2023/04/21 11:09:41;;;;;;;5.75;3.58;;;;;;;18.53;47.92;96084.84;5033670;28;20105;-30
2023/04/21 11:12:11;;;;;;;4.28;2.78;;;;;;;18.54;47.98;96083.63;5040507;28;20469;-30
2023/04/21 11:14:40;;;;;;;5.20;2.72;;;;;;;18.49;47.68;96084.31;5043007;28;20024;-29
2023/04/21 11:17:16;;;;;;;3.42;2.53;;;;;;;18.67;47.20;96074.97;5037923;28;20473;-29
2023/04/21 11:19:50;;;;;;;3.60;2.47;;;;;;;18.61;47.28;96068.69;5040533;28;20043;-30
2023/04/21 11:22:17;;;;;;;3.67;2.45;;;;;;;18.60;47.03;96069.94;5033726;28;20081;-30
2023/04/21 11:24:46;;;;;;;5.22;2.50;;;;;;;18.67;47.08;96066.00;5033700;28;20448;-29
2023/04/21 11:27:14;;;;;;;8.27;2.55;;;;;;;18.65;46.62;96070.00;5033817;28;20024;-29
2023/04/21 11:29:39;;;;;;;4.00;2.45;;;;;;;18.69;46.51;96066.25;5034631;28;20105;-30
2023/04/21 11:32:07;;;;;;;4.60;2.42;;;;;;;18.63;46.78;96066.97;5047205;28;20104;-29